Terminal Aerodrome Forecast
Issued by NWS

Home | Current Version | Previous Version | Graphics & Text | Print | Product List | Glossary On
Versions: 1 2 3 4 5 6 7 8 9 10 11 12 13 14 15 16 17
456
FTUS42 KMHX 191525 AAA
TAFOAJ
TAF AMD
KOAJ 191525Z 1915/2012 33007KT P6SM SCT025
      TEMPO 1915/1916 BKN020
     FM191600 32009KT P6SM SCT020
     FM192200 VRB03KT P6SM SKC
      AMD LTD TO CLD VIS AND WIND=

USA.gov is the U.S. government's official web portal to all federal, state and local government web resources and services.